Time;durP1;ratioP1;P1;durP2;ratioP2;P2;SDS_P1;SDS_P2;PMS_P1;PMS_P2;Temp;Humidity;BMP_temperature;BMP_pressure;BME280_temperature;BME280_humidity;BME280_pressure;Samples;Min_cycle;Max_cycle;Signal;HPM_P1;HPM_P2
2023/10/14 00:01:11;;;;;;;;;;;;;;;12.83;100.00;100168.81;5115608;28;846;-59
2023/10/14 00:03:41;;;;;;;;;;;;;;;12.85;100.00;100161.66;5115771;28;982;-60
2023/10/14 00:06:11;;;;;;;;;;;;;;;12.78;100.00;100153.38;5115581;28;960;-59
2023/10/14 00:09:43;;;;;;;;;;;;;;;12.65;100.00;100153.09;5115350;28;862;-59
2023/10/14 00:11:51;;;;;;;;;;;;;;;12.52;100.00;100151.22;5092538;28;1482;-60
2023/10/14 00:14:18;;;;;;;;;;;;;;;12.45;100.00;100144.50;5115646;28;1057;-60
2023/10/14 00:16:51;;;;;;;;;;;;;;;12.38;100.00;100139.03;5114991;28;1890;-60
2023/10/14 00:19:22;;;;;;;;;;;;;;;12.45;100.00;100136.19;5115030;28;1290;-59
2023/10/14 00:21:49;;;;;;;;;;;;;;;12.55;100.00;100133.78;5115213;28;879;-60
2023/10/14 00:24:26;;;;;;;;;;;;;;;12.64;100.00;100126.56;5114899;28;881;-59
2023/10/14 00:27:02;;;;;;;;;;;;;;;12.63;100.00;100129.72;5114845;28;925;-60
2023/10/14 00:29:29;;;;;;;;;;;;;;;12.59;100.00;100129.78;5114863;28;1455;-59
2023/10/14 00:31:57;;;;;;;;;;;;;;;12.54;100.00;100129.41;5114839;28;1403;-60
2023/10/14 00:34:25;;;;;;;;;;;;;;;12.53;100.00;100128.63;5115236;28;804;-59
2023/10/14 00:36:56;;;;;;;;;;;;;;;12.57;100.00;100128.59;5114789;28;1914;-60
2023/10/14 00:39:28;;;;;;;;;;;;;;;12.61;100.00;100121.84;5114651;28;846;-59
2023/10/14 00:41:56;;;;;;;;;;;;;;;12.63;100.00;100119.44;5114632;28;913;-59
2023/10/14 00:44:27;;;;;;;;;;;;;;;12.62;100.00;100122.63;5114517;28;937;-59
2023/10/14 00:46:57;;;;;;;;;;;;;;;12.61;100.00;100112.72;5114522;28;887;-60
2023/10/14 00:49:31;;;;;;;;;;;;;;;12.68;100.00;100112.66;5114472;28;864;-60
2023/10/14 00:51:59;;;;;;;;;;;;;;;12.63;100.00;100105.56;5114388;28;874;-60
2023/10/14 00:54:41;;;;;;;;;;;;;;;12.41;100.00;100101.38;5096658;28;1344;-59
2023/10/14 00:59:44;;;;;;;;;;;;;;;12.21;100.00;100093.63;5114413;28;772;-59
2023/10/14 01:02:11;;;;;;;;;;;;;;;12.39;100.00;100084.38;5114476;28;953;-60
2023/10/14 01:04:40;;;;;;;;;;;;;;;12.46;100.00;100087.88;5114163;28;1030;-60
2023/10/14 01:07:13;;;;;;;;;;;;;;;12.34;100.00;100082.84;5114144;28;928;-59
2023/10/14 01:12:39;;;;;;;;;;;;;;;12.13;100.00;100080.22;5114128;28;832;-59
2023/10/14 01:15:10;;;;;;;;;;;;;;;12.00;100.00;100080.69;5113124;28;1866;-60
2023/10/14 01:17:36;;;;;;;;;;;;;;;12.05;100.00;100085.00;5113807;28;1882;-59
2023/10/14 01:20:28;;;;;;;;;;;;;;;12.17;100.00;100080.97;5113935;28;830;-60
2023/10/14 01:23:06;;;;;;;;;;;;;;;12.26;100.00;100079.31;5112600;28;1551;-60
2023/10/14 01:25:41;;;;;;;;;;;;;;;12.26;100.00;100073.00;5095299;28;2300;-59
2023/10/14 01:28:15;;;;;;;;;;;;;;;12.28;100.00;100073.38;5113723;28;909;-59
2023/10/14 01:34:24;;;;;;;;;;;;;;;12.07;100.00;100073.53;4991637;28;1382;-59
2023/10/14 01:36:51;;;;;;;;;;;;;;;11.93;100.00;100066.09;4990773;28;1981;-59
2023/10/14 01:39:21;;;;;;;;;;;;;;;11.95;100.00;100072.00;4991526;28;954;-59
2023/10/14 01:41:48;;;;;;;;;;;;;;;11.97;100.00;100064.88;4991470;28;997;-60
2023/10/14 01:44:21;;;;;;;;;;;;;;;12.03;100.00;100066.03;4991413;28;1053;-60
2023/10/14 01:46:48;;;;;;;;;;;;;;;12.07;100.00;100062.44;4991442;28;841;-59
2023/10/14 01:49:19;;;;;;;;;;;;;;;11.97;100.00;100059.34;4991844;28;1093;-60
2023/10/14 01:51:49;;;;;;;;;;;;;;;11.93;100.00;100055.81;4991858;28;891;-59
2023/10/14 01:54:16;;;;;;;;;;;;;;;11.96;100.00;100054.97;4991221;28;1229;-60
2023/10/14 01:56:43;;;;;;;;;;;;;;;11.87;100.00;100051.06;4991178;28;1915;-59
2023/10/14 01:59:11;;;;;;;;;;;;;;;11.73;100.00;100054.69;4991211;28;929;-59
2023/10/14 02:01:41;;;;;;;;;;;;;;;11.61;100.00;100045.69;4991145;28;1005;-59
2023/10/14 02:04:07;;;;;;;;;;;;;;;11.64;100.00;100044.06;4991039;28;1075;-59
2023/10/14 02:06:33;;;;;;;;;;;;;;;11.71;100.00;100034.94;4991172;28;845;-59
2023/10/14 02:09:00;;;;;;;;;;;;;;;11.74;100.00;100039.69;5033107;28;1034;-59
2023/10/14 02:11:38;;;;;;;;;;;;;;;11.80;100.00;100047.16;5112994;28;1038;-60
2023/10/14 02:14:07;;;;;;;;;;;;;;;11.90;100.00;100039.22;5113202;28;1042;-60
2023/10/14 02:16:44;;;;;;;;;;;;;;;11.89;100.00;100043.97;5112835;28;1978;-60
2023/10/14 02:19:21;;;;;;;;;;;;;;;11.71;100.00;100046.00;5112682;28;1473;-60
2023/10/14 02:21:48;;;;;;;;;;;;;;;11.49;100.00;100046.13;5112769;28;914;-60
2023/10/14 02:24:18;;;;;;;;;;;;;;;11.35;100.00;100049.75;5112534;28;866;-59
2023/10/14 02:26:48;;;;;;;;;;;;;;;11.26;100.00;100048.59;5112801;28;922;-59
2023/10/14 02:29:15;;;;;;;;;;;;;;;11.30;100.00;100043.84;5112710;28;939;-59
2023/10/14 02:31:45;;;;;;;;;;;;;;;11.41;100.00;100044.56;5112494;28;885;-59
2023/10/14 02:34:14;;;;;;;;;;;;;;;11.52;100.00;100050.06;5112530;28;890;-59
2023/10/14 02:36:50;;;;;;;;;;;;;;;11.56;100.00;100054.38;5112513;28;1918;-60
2023/10/14 02:39:27;;;;;;;;;;;;;;;11.50;100.00;100053.25;5112447;28;897;-60
2023/10/14 02:42:06;;;;;;;;;;;;;;;11.58;100.00;100056.75;5112513;28;915;-60
2023/10/14 02:44:43;;;;;;;;;;;;;;;11.70;100.00;100050.00;5112421;28;909;-60
2023/10/14 02:47:10;;;;;;;;;;;;;;;11.81;100.00;100059.00;5111506;28;862;-60
2023/10/14 02:49:40;;;;;;;;;;;;;;;11.90;100.00;100053.84;5112524;28;817;-59
2023/10/14 02:52:09;;;;;;;;;;;;;;;12.00;100.00;100052.19;5112304;28;968;-59
2023/10/14 02:54:39;;;;;;;;;;;;;;;12.04;100.00;100052.97;5094341;28;937;-60
2023/10/14 02:57:26;;;;;;;;;;;;;;;12.01;100.00;100051.00;5112280;28;1980;-59
2023/10/14 02:59:57;;;;;;;;;;;;;;;11.95;100.00;100056.19;5112176;28;925;-59
2023/10/14 03:02:25;;;;;;;;;;;;;;;11.85;100.00;100051.47;5112297;28;829;-59
2023/10/14 03:05:08;;;;;;;;;;;;;;;11.73;100.00;100043.63;5112141;28;948;-59
2023/10/14 03:07:45;;;;;;;;;;;;;;;11.59;100.00;100048.06;5093917;28;1662;-59
2023/10/14 03:12:51;;;;;;;;;;;;;;;11.57;100.00;100055.19;5112230;28;932;-60
2023/10/14 03:15:19;;;;;;;;;;;;;;;11.57;100.00;100057.97;5112149;28;867;-59
2023/10/14 03:18:01;;;;;;;;;;;;;;;11.53;100.00;100057.97;5111634;28;2052;-60
2023/10/14 03:22:55;;;;;;;;;;;;;;;11.49;100.00;100059.97;5111876;28;858;-60
2023/10/14 03:25:29;;;;;;;;;;;;;;;11.47;100.00;100059.56;5112058;28;961;-59
2023/10/14 03:28:00;;;;;;;;;;;;;;;11.43;100.00;100056.81;5112090;28;882;-59
2023/10/14 03:30:27;;;;;;;;;;;;;;;11.45;100.00;100051.66;5112305;28;873;-60
2023/10/14 03:32:55;;;;;;;;;;;;;;;11.47;100.00;100051.28;5112290;28;857;-59
2023/10/14 03:35:23;;;;;;;;;;;;;;;11.51;100.00;100056.81;5111935;28;1235;-60
2023/10/14 03:37:54;;;;;;;;;;;;;;;11.45;100.00;100061.97;5112204;28;1970;-59
2023/10/14 03:43:14;;;;;;;;;;;;;;;11.36;100.00;100050.53;5112307;28;632;-59
2023/10/14 03:45:56;;;;;;;;;;;;;;;11.34;100.00;100052.91;5111774;28;940;-60
2023/10/14 03:48:35;;;;;;;;;;;;;;;11.32;100.00;100058.06;5111878;28;837;-59
2023/10/14 03:51:05;;;;;;;;;;;;;;;11.34;100.00;100045.41;5111769;28;973;-59
2023/10/14 03:53:32;;;;;;;;;;;;;;;11.32;100.00;100052.53;5111740;28;1040;-59
2023/10/14 03:56:03;;;;;;;;;;;;;;;11.32;100.00;100047.78;5111759;28;1311;-59
2023/10/14 03:58:30;;;;;;;;;;;;;;;11.36;100.00;100045.78;5112455;28;1878;-59
2023/10/14 04:01:02;;;;;;;;;;;;;;;11.46;100.00;100041.41;5115548;28;861;-59
2023/10/14 04:04:14;;;;;;;;;;;;;;;11.64;100.00;100041.31;5115492;28;889;-60
2023/10/14 04:06:21;;;;;;;;;;;;;;;11.82;100.00;100046.72;5109447;28;1703;-59
2023/10/14 04:08:48;;;;;;;;;;;;;;;11.87;100.00;100038.00;5115528;28;901;-59
2023/10/14 04:11:25;;;;;;;;;;;;;;;11.84;100.00;100036.84;5115226;28;861;-60
2023/10/14 04:14:01;;;;;;;;;;;;;;;11.78;100.00;100040.44;5098522;28;988;-60
2023/10/14 04:16:29;;;;;;;;;;;;;;;11.69;100.00;100040.09;5115298;28;846;-60
2023/10/14 04:19:13;;;;;;;;;;;;;;;11.63;100.00;100035.00;5114890;28;1882;-60
2023/10/14 04:21:40;;;;;;;;;;;;;;;11.62;100.00;100038.16;5115033;28;945;-60
2023/10/14 04:24:19;;;;;;;;;;;;;;;11.61;100.00;100036.59;5115081;28;863;-60
2023/10/14 04:26:48;;;;;;;;;;;;;;;11.58;100.00;100038.16;5115018;28;1072;-59
2023/10/14 04:29:39;;;;;;;;;;;;;;;11.53;100.00;100035.03;5115375;28;873;-60
2023/10/14 04:32:15;;;;;;;;;;;;;;;11.48;100.00;100040.97;5115152;28;949;-59
2023/10/14 04:34:43;;;;;;;;;;;;;;;11.48;100.00;100039.03;5114773;28;823;-59
2023/10/14 04:37:09;;;;;;;;;;;;;;;11.58;100.00;100038.16;5114974;28;1980;-59
2023/10/14 04:39:42;;;;;;;;;;;;;;;11.61;100.00;100042.91;5114684;28;854;-60
2023/10/14 04:42:27;;;;;;;;;;;;;;;11.62;100.00;100049.22;5114579;28;926;-60
2023/10/14 04:44:59;;;;;;;;;;;;;;;11.65;100.00;100043.69;5114684;28;1199;-59
2023/10/14 04:47:37;;;;;;;;;;;;;;;11.70;100.00;100048.00;5114605;28;1190;-60
2023/10/14 04:50:14;;;;;;;;;;;;;;;11.78;100.00;100043.22;5114603;28;861;-60
2023/10/14 04:52:49;;;;;;;;;;;;;;;11.91;100.00;100043.56;5114764;28;1573;-60
2023/10/14 04:55:28;;;;;;;;;;;;;;;12.07;100.00;100048.59;5114477;28;921;-60
2023/10/14 05:00:49;;;;;;;;;;;;;;;12.19;100.00;100054.44;5114290;28;947;-60
2023/10/14 05:03:20;;;;;;;;;;;;;;;12.30;100.00;100059.91;5114418;28;853;-60
2023/10/14 05:06:03;;;;;;;;;;;;;;;12.35;100.00;100065.00;5114312;28;849;-60
2023/10/14 05:08:45;;;;;;;;;;;;;;;12.52;100.00;100060.50;5114194;28;865;-60
2023/10/14 05:11:13;;;;;;;;;;;;;;;12.65;100.00;100061.59;5113199;28;904;-59
2023/10/14 05:13:44;;;;;;;;;;;;;;;12.68;100.00;100071.06;5114210;28;1034;-60
2023/10/14 05:16:21;;;;;;;;;;;;;;;12.65;100.00;100066.31;5113973;28;981;-59
2023/10/14 05:21:36;;;;;;;;;;;;;;;12.74;100.00;100066.66;5113831;28;688;-59
2023/10/14 05:24:09;;;;;;;;;;;;;;;12.87;100.00;100070.47;5113980;28;822;-59
2023/10/14 05:26:44;;;;;;;;;;;;;;;13.04;100.00;100071.50;5113685;28;866;-60
2023/10/14 05:29:22;;;;;;;;;;;;;;;13.22;100.00;100067.72;5113860;28;956;-60
2023/10/14 05:31:49;;;;;;;;;;;;;;;13.46;100.00;100071.44;5095514;28;827;-60
2023/10/14 05:34:26;;;;;;;;;;;;;;;13.83;100.00;100073.34;5113791;28;813;-59
2023/10/14 05:36:55;;;;;;;;;;;;;;;14.29;100.00;100084.97;5113682;28;1969;-59
2023/10/14 05:39:25;;;;;;;;;;;;;;;14.52;100.00;100083.44;5113837;28;877;-60
2023/10/14 05:41:58;;;;;;;;;;;;;;;14.60;100.00;100071.78;5095276;28;1246;-60
2023/10/14 05:44:28;;;;;;;;;;;;;;;14.70;100.00;100081.13;5113406;28;933;-59
2023/10/14 05:46:55;;;;;;;;;;;;;;;14.80;100.00;100087.75;5095833;28;846;-59
2023/10/14 05:49:24;;;;;;;;;;;;;;;14.87;100.00;100085.63;5113258;28;988;-59
2023/10/14 05:51:51;;;;;;;;;;;;;;;14.96;100.00;100085.06;5113719;28;929;-59
2023/10/14 05:54:18;;;;;;;;;;;;;;;15.04;100.00;100085.72;5113615;28;861;-59
2023/10/14 05:56:45;;;;;;;;;;;;;;;15.16;100.00;100082.31;5113394;28;1957;-59
2023/10/14 05:59:12;;;;;;;;;;;;;;;15.32;100.00;100084.41;5113526;28;845;-59
2023/10/14 06:01:38;;;;;;;;;;;;;;;15.57;100.00;100081.06;5113381;28;837;-59
2023/10/14 06:04:05;;;;;;;;;;;;;;;15.80;100.00;100080.22;5113286;28;833;-59
2023/10/14 06:06:33;;;;;;;;;;;;;;;16.23;100.00;100075.69;5113479;28;894;-59
2023/10/14 06:09:00;;;;;;;;;;;;;;;16.54;100.00;100078.91;5113262;28;999;-59
2023/10/14 06:11:26;;;;;;;;;;;;;;;16.72;98.90;100079.22;5113341;28;825;-59
2023/10/14 06:13:53;;;;;;;;;;;;;;;16.90;96.82;100075.25;5113442;28;929;-59
2023/10/14 06:16:19;;;;;;;;;;;;;;;17.13;94.93;100077.00;5113303;28;787;-59
2023/10/14 06:18:47;;;;;;;;;;;;;;;17.34;91.80;100079.19;5112558;28;1885;-59
2023/10/14 06:21:15;;;;;;;;;;;;;;;17.45;90.10;100075.31;5113083;28;973;-59
2023/10/14 06:23:47;;;;;;;;;;;;;;;17.67;88.43;100081.06;5094973;28;1344;-59
2023/10/14 06:26:17;;;;;;;;;;;;;;;17.89;86.32;100081.25;5112597;28;932;-59
2023/10/14 06:28:48;;;;;;;;;;;;;;;18.07;84.75;100077.88;5112680;28;894;-59
2023/10/14 06:31:14;;;;;;;;;;;;;;;18.33;83.17;100073.84;5112501;28;909;-59
2023/10/14 06:33:41;;;;;;;;;;;;;;;18.59;80.63;100078.63;5112722;28;853;-59
2023/10/14 06:36:13;;;;;;;;;;;;;;;18.70;78.70;100079.03;5112420;28;846;-59
2023/10/14 06:38:46;;;;;;;;;;;;;;;18.86;76.84;100081.72;5112401;28;2011;-59
2023/10/14 06:41:16;;;;;;;;;;;;;;;19.07;74.78;100080.16;5112583;28;945;-59
2023/10/14 07:14:44;;;;;;;;;;;;;;;23.43;60.89;100064.16;5183020;23;1595;-67
2023/10/14 07:17:13;;;;;;;;;;;;;;;23.98;61.01;100076.09;5011839;28;1910;-67
2023/10/14 07:19:39;;;;;;;;;;;;;;;24.30;61.12;100062.22;5011826;28;897;-69
2023/10/14 07:22:10;;;;;;;;;;;;;;;24.73;59.83;100059.72;5011643;28;850;-68
2023/10/14 07:24:37;;;;;;;;;;;;;;;24.71;60.08;100057.41;5011910;28;866;-68
2023/10/14 07:27:04;;;;;;;;;;;;;;;24.73;61.24;100056.91;5011754;28;799;-69
2023/10/14 07:29:30;;;;;;;;;;;;;;;24.30;63.79;100050.91;5011694;28;866;-68
2023/10/14 07:31:57;;;;;;;;;;;;;;;23.58;68.53;100050.06;5011816;28;826;-68
2023/10/14 07:34:24;;;;;;;;;;;;;;;23.13;70.43;100048.44;5013495;28;807;-67
2023/10/14 07:36:51;;;;;;;;;;;;;;;22.83;69.87;100049.16;5015675;28;1953;-68
2023/10/14 07:39:29;;;;;;;;;;;;;;;22.97;69.43;100047.63;5015513;28;830;-68
2023/10/14 07:41:56;;;;;;;;;;;;;;;23.37;66.55;100046.34;5015655;28;1321;-67
2023/10/14 07:44:22;;;;;;;;;;;;;;;24.01;63.70;100042.03;5015262;28;1190;-68
2023/10/14 07:46:54;;;;;;;;;;;;;;;24.78;59.97;100050.56;5015454;28;824;-68
2023/10/14 07:49:20;;;;;;;;;;;;;;;25.25;57.92;100042.88;5015349;28;968;-67
2023/10/14 07:51:50;;;;;;;;;;;;;;;25.35;57.83;100046.28;5015201;28;870;-69
2023/10/14 07:54:17;;;;;;;;;;;;;;;25.46;57.34;100043.59;5015631;28;807;-69
2023/10/14 07:56:46;;;;;;;;;;;;;;;25.50;55.30;100046.19;4997356;28;1906;-68
2023/10/14 07:59:14;;;;;;;;;;;;;;;25.34;55.13;100047.59;5015208;28;823;-68
2023/10/14 08:01:39;;;;;;;;;;;;;;;25.17;55.81;100044.56;5014928;28;906;-66
2023/10/14 08:04:13;;;;;;;;;;;;;;;25.43;55.15;100051.03;5015123;28;874;-67
2023/10/14 08:06:41;;;;;;;;;;;;;;;25.50;54.17;100038.50;5015029;28;890;-68
2023/10/14 08:09:28;;;;;;;;;;;;;;;25.50;52.60;100040.53;5015094;28;890;-69
2023/10/14 08:11:55;;;;;;;;;;;;;;;26.01;51.85;100036.06;5014832;28;830;-68
2023/10/14 08:14:20;;;;;;;;;;;;;;;26.01;53.94;100033.22;5023691;28;1221;-68
2023/10/14 08:16:47;;;;;;;;;;;;;;;25.80;54.11;100033.31;5034752;28;1910;-69
2023/10/14 08:19:13;;;;;;;;;;;;;;;25.79;53.35;100040.25;5034439;28;802;-68
2023/10/14 08:21:40;;;;;;;;;;;;;;;25.77;54.00;100025.81;5034382;28;886;-68
2023/10/14 08:24:07;;;;;;;;;;;;;;;25.66;55.52;100034.25;5034337;28;850;-68
2023/10/14 08:26:36;;;;;;;;;;;;;;;25.78;55.27;100027.41;5034521;28;898;-69
2023/10/14 08:29:03;;;;;;;;;;;;;;;25.94;54.06;100025.22;5034458;28;885;-68
2023/10/14 08:31:32;;;;;;;;;;;;;;;26.17;53.23;100029.75;5034621;28;870;-66
2023/10/14 08:34:01;;;;;;;;;;;;;;;26.11;53.11;100031.00;5034276;28;862;-67
2023/10/14 08:36:28;;;;;;;;;;;;;;;25.87;54.32;100023.59;5034305;28;940;-67
2023/10/14 08:38:58;;;;;;;;;;;;;;;25.97;55.05;100024.22;5034079;28;1975;-66
2023/10/14 08:41:26;;;;;;;;;;;;;;;25.98;55.71;100011.59;5034030;28;815;-67
2023/10/14 08:43:56;;;;;;;;;;;;;;;25.65;56.80;100021.38;5034370;28;772;-67
2023/10/14 08:46:29;;;;;;;;;;;;;;;25.65;57.97;100024.22;5034014;28;826;-66
2023/10/14 08:48:56;;;;;;;;;;;;;;;25.71;57.77;100024.25;5034091;28;858;-66
2023/10/14 08:51:24;;;;;;;;;;;;;;;25.79;57.73;100014.78;5033890;28;890;-67
2023/10/14 08:53:54;;;;;;;;;;;;;;;25.62;56.61;100011.03;5034118;28;890;-68
2023/10/14 08:56:22;;;;;;;;;;;;;;;25.58;57.34;100016.16;5033892;28;872;-68
2023/10/14 08:58:49;;;;;;;;;;;;;;;25.57;56.98;100015.38;5033768;28;1906;-67
2023/10/14 09:01:17;;;;;;;;;;;;;;;25.61;56.72;100018.00;5033747;28;815;-67
2023/10/14 09:03:46;;;;;;;;;;;;;;;25.71;56.49;99999.56;5033770;28;803;-66
2023/10/14 09:06:12;;;;;;;;;;;;;;;25.78;55.77;100003.97;5033621;28;875;-67
2023/10/14 09:08:42;;;;;;;;;;;;;;;25.75;55.25;100007.81;5033700;28;848;-66
2023/10/14 09:11:25;;;;;;;;;;;;;;;25.90;54.36;100010.50;5033713;28;834;-67
2023/10/14 09:14:01;;;;;;;;;;;;;;;25.68;54.54;100006.22;5033164;28;1361;-67
2023/10/14 09:16:27;;;;;;;;;;;;;;;25.77;54.19;99997.53;5033685;28;834;-67
2023/10/14 09:19:01;;;;;;;;;;;;;;;25.85;53.86;99992.94;5015790;28;1914;-67
2023/10/14 09:21:28;;;;;;;;;;;;;;;25.95;53.34;99996.41;5033436;28;1335;-67
2023/10/14 09:23:54;;;;;;;;;;;;;;;25.70;54.12;99991.56;5033395;28;830;-67
2023/10/14 09:26:21;;;;;;;;;;;;;;;25.80;54.01;99993.69;5033370;28;874;-66
2023/10/14 09:28:50;;;;;;;;;;;;;;;25.71;53.64;99988.25;5033165;28;810;-66
2023/10/14 09:31:18;;;;;;;;;;;;;;;25.84;53.83;99988.59;5033264;28;911;-67
2023/10/14 09:33:45;;;;;;;;;;;;;;;26.18;52.99;99983.16;5033194;28;814;-68
2023/10/14 09:36:18;;;;;;;;;;;;;;;26.33;51.80;99979.34;5033103;28;878;-68
2023/10/14 09:38:54;;;;;;;;;;;;;;;26.45;51.02;99976.03;5032950;28;1984;-69
2023/10/14 09:41:24;;;;;;;;;;;;;;;26.44;50.71;99973.75;5033106;28;870;-68
2023/10/14 09:43:53;;;;;;;;;;;;;;;26.39;50.74;99968.81;5032930;28;878;-69
2023/10/14 09:46:20;;;;;;;;;;;;;;;26.37;50.67;99966.50;5032895;28;835;-68
2023/10/14 09:48:47;;;;;;;;;;;;;;;26.41;50.45;99966.25;5032939;28;901;-68
2023/10/14 09:51:16;;;;;;;;;;;;;;;26.49;50.15;99967.31;5032690;28;878;-68
2023/10/14 09:53:46;;;;;;;;;;;;;;;26.70;50.31;99956.59;5032866;28;850;-68
2023/10/14 09:56:13;;;;;;;;;;;;;;;26.77;50.41;99963.81;5032214;28;838;-64
2023/10/14 09:58:43;;;;;;;;;;;;;;;26.69;50.40;99949.34;5032589;28;1906;-63
2023/10/14 10:01:14;;;;;;;;;;;;;;;26.73;50.19;99955.56;5032613;28;850;-64
2023/10/14 10:03:44;;;;;;;;;;;;;;;26.73;49.95;99934.94;5015062;28;1365;-64
2023/10/14 10:06:25;;;;;;;;;;;;;;;26.73;50.07;99926.44;5032623;28;819;-63
2023/10/14 10:09:13;;;;;;;;;;;;;;;26.97;49.96;99917.44;5032446;28;794;-62
2023/10/14 10:11:46;;;;;;;;;;;;;;;27.11;49.30;99924.16;5032323;28;1318;-61
2023/10/14 10:14:17;;;;;;;;;;;;;;;27.05;50.02;99910.75;5032588;28;1348;-60
2023/10/14 10:16:47;;;;;;;;;;;;;;;27.12;49.31;99908.69;5032379;28;874;-62
2023/10/14 10:19:13;;;;;;;;;;;;;;;27.24;48.14;99904.59;5032296;28;806;-60
2023/10/14 10:21:59;;;;;;;;;;;;;;;27.03;48.54;99901.19;5032388;28;776;-61
2023/10/14 10:24:34;;;;;;;;;;;;;;;27.05;48.39;99888.03;5032057;28;1931;-61
2023/10/14 10:27:05;;;;;;;;;;;;;;;27.27;47.67;99889.38;5032136;28;1117;-60
2023/10/14 10:29:33;;;;;;;;;;;;;;;27.20;47.96;99884.19;5032162;28;838;-61
2023/10/14 10:32:07;;;;;;;;;;;;;;;27.33;47.27;99878.00;5032268;28;881;-61
2023/10/14 10:34:33;;;;;;;;;;;;;;;27.45;47.42;99877.47;5031967;28;894;-60
2023/10/14 10:37:03;;;;;;;;;;;;;;;27.50;46.02;99867.41;5031950;28;1890;-60
2023/10/14 10:39:30;;;;;;;;;;;;;;;27.36;46.40;99862.81;5031967;28;906;-61
2023/10/14 10:41:57;;;;;;;;;;;;;;;27.54;45.79;99859.41;5014395;28;861;-61
2023/10/14 10:44:27;;;;;;;;;;;;;;;27.87;45.23;99855.72;5032026;28;815;-61
2023/10/14 10:46:58;;;;;;;;;;;;;;;27.89;43.98;99858.03;5031891;28;806;-61
2023/10/14 10:49:43;;;;;;;;;;;;;;;27.70;44.25;99855.75;5031790;28;934;-61
2023/10/14 10:52:13;;;;;;;;;;;;;;;27.76;44.25;99849.28;5031876;28;798;-61
2023/10/14 10:54:43;;;;;;;;;;;;;;;27.92;43.30;99844.88;5031804;28;807;-61
2023/10/14 10:57:13;;;;;;;;;;;;;;;28.06;43.27;99840.94;5031766;28;1890;-61
2023/10/14 10:59:47;;;;;;;;;;;;;;;28.14;43.41;99832.63;5031749;28;896;-61
2023/10/14 11:02:18;;;;;;;;;;;;;;;28.44;41.57;99833.47;5031864;28;822;-61
2023/10/14 11:04:48;;;;;;;;;;;;;;;28.55;41.13;99837.56;5031725;28;818;-60
2023/10/14 11:07:14;;;;;;;;;;;;;;;28.68;41.17;99829.22;5031815;28;838;-61
2023/10/14 11:09:41;;;;;;;;;;;;;;;28.81;40.70;99832.22;5033956;28;887;-61
2023/10/14 11:12:11;;;;;;;;;;;;;;;28.75;39.75;99822.94;5035883;28;833;-61
2023/10/14 11:14:39;;;;;;;;;;;;;;;28.50;40.78;99824.94;5035551;28;1352;-61
2023/10/14 11:17:06;;;;;;;;;;;;;;;28.63;41.11;99813.72;5018111;28;1914;-61
2023/10/14 11:19:33;;;;;;;;;;;;;;;28.79;40.78;99812.06;5017907;28;1448;-61
2023/10/14 11:22:00;;;;;;;;;;;;;;;28.50;41.05;99811.47;5035654;28;845;-61
2023/10/14 11:24:27;;;;;;;;;;;;;;;28.39;41.84;99805.09;5035651;28;795;-61
2023/10/14 11:26:55;;;;;;;;;;;;;;;28.16;42.23;99793.84;5035711;28;759;-62
2023/10/14 11:29:26;;;;;;;;;;;;;;;28.33;42.11;99798.66;5035459;28;1044;-62
2023/10/14 11:31:55;;;;;;;;;;;;;;;28.65;41.07;99796.13;5035537;28;862;-61
2023/10/14 11:34:22;;;;;;;;;;;;;;;28.85;40.44;99792.88;5035459;28;806;-62
2023/10/14 11:36:48;;;;;;;;;;;;;;;29.18;40.59;99787.41;5035596;28;933;-62
2023/10/14 11:39:21;;;;;;;;;;;;;;;29.28;40.20;99791.47;5035413;28;1886;-61
2023/10/14 11:41:51;;;;;;;;;;;;;;;29.06;40.27;99783.88;5035317;28;873;-62
2023/10/14 11:44:18;;;;;;;;;;;;;;;28.97;39.93;99779.31;5035101;28;914;-62
2023/10/14 11:46:45;;;;;;;;;;;;;;;28.83;39.91;99781.25;5035372;28;970;-61
2023/10/14 11:49:12;;;;;;;;;;;;;;;28.82;40.14;99779.69;5035207;28;905;-61
2023/10/14 11:51:42;;;;;;;;;;;;;;;28.88;40.43;99765.44;5034983;28;870;-61
2023/10/14 11:54:12;;;;;;;;;;;;;;;29.09;39.54;99760.84;5035024;28;856;-61
2023/10/14 11:56:40;;;;;;;;;;;;;;;29.26;38.87;99762.75;5017126;28;1178;-61
2023/10/14 11:59:06;;;;;;;;;;;;;;;29.29;38.09;99770.22;5034852;28;1971;-61
2023/10/14 12:01:34;;;;;;;;;;;;;;;29.26;38.20;99759.91;5034892;28;795;-61
2023/10/14 12:04:01;;;;;;;;;;;;;;;29.51;37.65;99755.72;5034803;28;910;-61
2023/10/14 12:06:30;;;;;;;;;;;;;;;29.44;37.30;99753.47;5034806;28;895;-61
2023/10/14 12:08:57;;;;;;;;;;;;;;;29.31;37.15;99756.22;5034674;28;918;-61
2023/10/14 12:11:39;;;;;;;;;;;;;;;29.40;37.21;99760.78;5034625;28;831;-61
2023/10/14 12:14:07;;;;;;;;;;;;;;;29.57;37.13;99752.78;5016757;28;1320;-60
2023/10/14 12:16:34;;;;;;;;;;;;;;;29.37;36.26;99748.38;5034577;28;947;-61
2023/10/14 12:19:01;;;;;;;;;;;;;;;29.37;36.46;99750.47;5034450;28;1974;-62
2023/10/14 12:21:27;;;;;;;;;;;;;;;29.38;36.31;99740.63;5034167;28;827;-61
2023/10/14 12:23:56;;;;;;;;;;;;;;;29.43;36.16;99745.50;5034606;28;807;-61
2023/10/14 12:26:27;;;;;;;;;;;;;;;29.62;35.52;99742.66;5034518;28;819;-61
2023/10/14 12:28:54;;;;;;;;;;;;;;;29.68;36.03;99731.94;5034311;28;882;-61
2023/10/14 12:31:20;;;;;;;;;;;;;;;29.82;35.96;99732.84;5034434;28;855;-61
2023/10/14 12:33:47;;;;;;;;;;;;;;;29.77;36.17;99743.00;5034280;28;830;-61
2023/10/14 12:36:17;;;;;;;;;;;;;;;29.51;36.21;99726.50;5034074;28;926;-62
2023/10/14 12:38:44;;;;;;;;;;;;;;;29.47;36.78;99726.78;5034371;28;1949;-62
2023/10/14 12:41:14;;;;;;;;;;;;;;;29.55;36.20;99723.31;5034084;28;1237;-61
2023/10/14 12:43:41;;;;;;;;;;;;;;;29.32;36.61;99726.47;5034157;28;794;-61
2023/10/14 12:46:19;;;;;;;;;;;;;;;29.39;36.74;99731.53;5034082;28;964;-61
2023/10/14 12:48:46;;;;;;;;;;;;;;;29.42;35.82;99726.84;5034010;28;906;-61
2023/10/14 12:51:25;;;;;;;;;;;;;;;29.28;36.74;99726.75;5033895;28;1234;-61
2023/10/14 12:53:57;;;;;;;;;;;;;;;29.43;36.98;99722.72;5033898;28;828;-62
2023/10/14 12:56:26;;;;;;;;;;;;;;;29.49;36.43;99717.72;5034102;28;818;-61
2023/10/14 12:58:53;;;;;;;;;;;;;;;29.16;37.39;99721.72;5033741;28;1943;-61
2023/10/14 13:01:20;;;;;;;;;;;;;;;28.70;38.10;99713.63;5034091;28;782;-62
2023/10/14 13:03:53;;;;;;;;;;;;;;;28.67;38.13;99717.53;5033688;28;877;-62
2023/10/14 13:06:22;;;;;;;;;;;;;;;28.74;37.53;99707.63;5033642;28;851;-61
2023/10/14 13:08:51;;;;;;;;;;;;;;;28.57;37.43;99699.28;5032182;28;1227;-62
2023/10/14 13:11:17;;;;;;;;;;;;;;;28.37;37.77;99703.28;5033917;28;824;-62
2023/10/14 13:13:52;;;;;;;;;;;;;;;28.29;38.92;99700.28;5033762;28;1210;-61
2023/10/14 13:16:21;;;;;;;;;;;;;;;28.27;38.87;99697.19;5015686;28;1300;-62
2023/10/14 13:18:49;;;;;;;;;;;;;;;28.15;39.74;99690.03;5033407;28;1989;-62
2023/10/14 13:21:21;;;;;;;;;;;;;;;28.24;39.80;99692.56;5033287;28;911;-62
2023/10/14 13:23:47;;;;;;;;;;;;;;;28.32;39.04;99692.00;5033299;28;922;-62
2023/10/14 13:26:15;;;;;;;;;;;;;;;28.53;39.23;99687.44;5033518;28;787;-62
2023/10/14 13:28:45;;;;;;;;;;;;;;;28.63;39.17;99680.09;5033186;28;906;-62
2023/10/14 13:31:12;;;;;;;;;;;;;;;28.64;39.28;99678.78;5032434;28;1087;-61
2023/10/14 13:33:39;;;;;;;;;;;;;;;28.13;40.26;99683.34;5033011;28;947;-61
2023/10/14 13:36:09;;;;;;;;;;;;;;;27.98;40.66;99686.56;5033160;28;843;-61
2023/10/14 13:38:39;;;;;;;;;;;;;;;27.74;40.61;99690.03;5033079;28;1886;-61
2023/10/14 13:41:08;;;;;;;;;;;;;;;27.62;41.14;99678.75;5033156;28;831;-61
2023/10/14 13:43:34;;;;;;;;;;;;;;;27.85;40.53;99675.78;5032950;28;890;-61
2023/10/14 13:46:03;;;;;;;;;;;;;;;27.67;40.97;99669.44;5032935;28;860;-61
2023/10/14 13:48:30;;;;;;;;;;;;;;;27.34;41.59;99667.53;5033060;28;887;-61
2023/10/14 13:50:57;;;;;;;;;;;;;;;27.14;41.55;99673.50;5032930;28;830;-61
2023/10/14 13:53:23;;;;;;;;;;;;;;;27.00;42.20;99672.53;5032903;28;881;-60
2023/10/14 13:55:54;;;;;;;;;;;;;;;27.17;41.61;99664.72;5032750;28;1051;-61
2023/10/14 13:58:23;;;;;;;;;;;;;;;27.27;41.77;99668.09;5032588;28;1890;-61
2023/10/14 14:00:50;;;;;;;;;;;;;;;26.76;42.02;99619.25;5032782;28;909;-63
2023/10/14 14:03:17;;;;;;;;;;;;;;;26.93;42.40;99658.88;5032699;28;819;-63